sensor_id;sensor_type;location;lat;lon;timestamp;pressure;altitude;pressure_sealevel;temperature;humidity
79006;BME280;69202;45.498;-73.582;2023-04-24T00:00:15;100850.97;;;10.68;70.82
79006;BME280;69202;45.498;-73.582;2023-04-24T00:02:44;100733.91;;;9.90;70.65
79006;BME280;69202;45.498;-73.582;2023-04-24T00:05:15;100917.25;;;11.13;70.41
79006;BME280;69202;45.498;-73.582;2023-04-24T00:07:43;100833.22;;;10.59;70.12
79006;BME280;69202;45.498;-73.582;2023-04-24T00:10:11;100889.97;;;10.80;69.94
79006;BME280;69202;45.498;-73.582;2023-04-24T00:12:37;100833.31;;;10.44;71.01
79006;BME280;69202;45.498;-73.582;2023-04-24T00:15:04;100935.25;;;10.99;70.31
79006;BME280;69202;45.498;-73.582;2023-04-24T00:17:30;100913.22;;;10.75;70.73
79006;BME280;69202;45.498;-73.582;2023-04-24T00:19:56;100924.28;;;10.80;70.64
79006;BME280;69202;45.498;-73.582;2023-04-24T00:22:25;100910.22;;;10.63;71.00
79006;BME280;69202;45.498;-73.582;2023-04-24T00:24:52;100940.19;;;10.89;70.83
79006;BME280;69202;45.498;-73.582;2023-04-24T00:27:18;100815.38;;;10.15;70.09
79006;BME280;69202;45.498;-73.582;2023-04-24T00:29:45;100865.47;;;10.32;70.87
79006;BME280;69202;45.498;-73.582;2023-04-24T00:32:11;100883.88;;;10.50;70.89
79006;BME280;69202;45.498;-73.582;2023-04-24T00:34:37;100906.28;;;10.65;71.00
79006;BME280;69202;45.498;-73.582;2023-04-24T00:37:03;100901.44;;;10.61;70.83
79006;BME280;69202;45.498;-73.582;2023-04-24T00:39:29;100846.38;;;10.19;70.53
79006;BME280;69202;45.498;-73.582;2023-04-24T00:41:56;100936.13;;;10.79;71.33
79006;BME280;69202;45.498;-73.582;2023-04-24T00:44:22;100872.03;;;10.23;70.98
79006;BME280;69202;45.498;-73.582;2023-04-24T00:46:49;100945.22;;;10.71;71.50
79006;BME280;69202;45.498;-73.582;2023-04-24T00:49:23;100938.13;;;10.70;71.28
79006;BME280;69202;45.498;-73.582;2023-04-24T00:51:49;100948.56;;;10.73;72.23
79006;BME280;69202;45.498;-73.582;2023-04-24T00:54:17;100946.31;;;10.77;72.08
79006;BME280;69202;45.498;-73.582;2023-04-24T00:56:44;100920.00;;;10.64;72.50
79006;BME280;69202;45.498;-73.582;2023-04-24T00:59:12;100948.63;;;10.80;71.61
79006;BME280;69202;45.498;-73.582;2023-04-24T01:01:39;100950.25;;;10.74;71.82
79006;BME280;69202;45.498;-73.582;2023-04-24T01:04:09;100944.34;;;10.64;71.06
79006;BME280;69202;45.498;-73.582;2023-04-24T01:06:39;100946.66;;;10.67;72.00
79006;BME280;69202;45.498;-73.582;2023-04-24T01:09:05;100896.03;;;10.33;71.50
79006;BME280;69202;45.498;-73.582;2023-04-24T01:11:34;100841.16;;;9.96;71.03
79006;BME280;69202;45.498;-73.582;2023-04-24T01:14:00;100922.72;;;10.43;71.05
79006;BME280;69202;45.498;-73.582;2023-04-24T01:16:26;100907.91;;;10.38;70.76
79006;BME280;69202;45.498;-73.582;2023-04-24T01:18:52;100903.81;;;10.43;70.58
79006;BME280;69202;45.498;-73.582;2023-04-24T01:21:20;100958.09;;;10.69;70.42
79006;BME280;69202;45.498;-73.582;2023-04-24T01:23:47;100914.34;;;10.37;69.96
79006;BME280;69202;45.498;-73.582;2023-04-24T01:26:15;100912.41;;;10.31;69.33
79006;BME280;69202;45.498;-73.582;2023-04-24T01:28:41;100911.41;;;10.18;69.50
79006;BME280;69202;45.498;-73.582;2023-04-24T01:31:07;100868.94;;;9.90;69.87
79006;BME280;69202;45.498;-73.582;2023-04-24T01:33:34;100923.59;;;10.28;69.83
79006;BME280;69202;45.498;-73.582;2023-04-24T01:36:00;100955.28;;;10.56;70.37
79006;BME280;69202;45.498;-73.582;2023-04-24T01:38:27;100877.06;;;10.11;69.83
79006;BME280;69202;45.498;-73.582;2023-04-24T01:40:52;100893.84;;;10.22;70.46
79006;BME280;69202;45.498;-73.582;2023-04-24T01:43:19;100908.69;;;10.32;70.43
79006;BME280;69202;45.498;-73.582;2023-04-24T01:45:45;100808.03;;;9.66;69.57
79006;BME280;69202;45.498;-73.582;2023-04-24T01:48:12;100890.63;;;10.18;69.82
79006;BME280;69202;45.498;-73.582;2023-04-24T01:50:39;100947.50;;;10.46;69.86
79006;BME280;69202;45.498;-73.582;2023-04-24T01:53:05;100967.50;;;10.52;69.32
79006;BME280;69202;45.498;-73.582;2023-04-24T01:55:31;100943.31;;;10.22;69.03
79006;BME280;69202;45.498;-73.582;2023-04-24T01:57:57;100930.97;;;10.20;69.69
79006;BME280;69202;45.498;-73.582;2023-04-24T02:00:24;100854.56;;;9.68;69.03
79006;BME280;69202;45.498;-73.582;2023-04-24T02:02:50;100896.22;;;9.95;70.26
79006;BME280;69202;45.498;-73.582;2023-04-24T02:05:16;100977.34;;;10.38;69.47
79006;BME280;69202;45.498;-73.582;2023-04-24T02:07:42;100908.25;;;9.93;69.67
79006;BME280;69202;45.498;-73.582;2023-04-24T02:10:09;100894.34;;;9.96;69.85
79006;BME280;69202;45.498;-73.582;2023-04-24T02:12:35;100965.06;;;10.35;69.95
79006;BME280;69202;45.498;-73.582;2023-04-24T02:15:01;100885.53;;;9.87;69.83
79006;BME280;69202;45.498;-73.582;2023-04-24T02:17:26;100961.72;;;10.33;70.31
79006;BME280;69202;45.498;-73.582;2023-04-24T02:19:52;100962.44;;;10.42;70.31
79006;BME280;69202;45.498;-73.582;2023-04-24T02:22:18;100929.50;;;10.17;70.24
79006;BME280;69202;45.498;-73.582;2023-04-24T02:24:44;100978.78;;;10.34;70.15
79006;BME280;69202;45.498;-73.582;2023-04-24T02:27:11;100817.03;;;9.37;70.37
79006;BME280;69202;45.498;-73.582;2023-04-24T02:29:37;100947.97;;;9.99;70.69
79006;BME280;69202;45.498;-73.582;2023-04-24T02:32:03;100881.97;;;9.50;70.83
79006;BME280;69202;45.498;-73.582;2023-04-24T02:34:29;100960.16;;;10.09;71.16
79006;BME280;69202;45.498;-73.582;2023-04-24T02:36:54;100894.13;;;9.76;71.33
79006;BME280;69202;45.498;-73.582;2023-04-24T02:39:20;100925.22;;;10.08;70.42
79006;BME280;69202;45.498;-73.582;2023-04-24T02:41:46;100934.38;;;10.22;71.28
79006;BME280;69202;45.498;-73.582;2023-04-24T02:44:12;100854.84;;;9.73;70.61
79006;BME280;69202;45.498;-73.582;2023-04-24T02:46:38;100826.03;;;9.59;71.49
79006;BME280;69202;45.498;-73.582;2023-04-24T02:49:06;100910.84;;;10.01;70.55
79006;BME280;69202;45.498;-73.582;2023-04-24T02:51:32;100930.44;;;10.24;70.28
79006;BME280;69202;45.498;-73.582;2023-04-24T02:53:58;100875.75;;;9.86;70.04
79006;BME280;69202;45.498;-73.582;2023-04-24T02:56:24;100949.88;;;10.34;70.03
79006;BME280;69202;45.498;-73.582;2023-04-24T02:58:50;100854.03;;;9.58;69.66
79006;BME280;69202;45.498;-73.582;2023-04-24T03:01:16;100937.91;;;10.22;69.28
79006;BME280;69202;45.498;-73.582;2023-04-24T03:03:43;100921.97;;;10.12;69.36
79006;BME280;69202;45.498;-73.582;2023-04-24T03:06:09;100874.19;;;9.77;69.64
79006;BME280;69202;45.498;-73.582;2023-04-24T03:08:35;100949.03;;;10.19;69.56
79006;BME280;69202;45.498;-73.582;2023-04-24T03:11:01;100850.56;;;9.64;69.67
79006;BME280;69202;45.498;-73.582;2023-04-24T03:13:27;100815.28;;;9.30;69.03
79006;BME280;69202;45.498;-73.582;2023-04-24T03:15:53;100918.06;;;10.00;69.59
79006;BME280;69202;45.498;-73.582;2023-04-24T03:18:19;100890.88;;;9.80;69.06
79006;BME280;69202;45.498;-73.582;2023-04-24T03:20:46;100946.28;;;10.12;69.64
79006;BME280;69202;45.498;-73.582;2023-04-24T03:23:12;100660.28;;;8.30;68.97
79006;BME280;69202;45.498;-73.582;2023-04-24T03:25:38;100918.31;;;9.84;68.85
79006;BME280;69202;45.498;-73.582;2023-04-24T03:28:04;100920.63;;;9.87;69.11
79006;BME280;69202;45.498;-73.582;2023-04-24T03:30:30;100950.47;;;10.00;69.69
79006;BME280;69202;45.498;-73.582;2023-04-24T03:32:56;100801.44;;;9.18;69.53
79006;BME280;69202;45.498;-73.582;2023-04-24T03:35:22;100896.75;;;9.69;69.91
79006;BME280;69202;45.498;-73.582;2023-04-24T03:37:48;100892.63;;;9.73;70.28
79006;BME280;69202;45.498;-73.582;2023-04-24T03:40:14;100903.34;;;9.67;70.07
79006;BME280;69202;45.498;-73.582;2023-04-24T03:42:40;100917.09;;;9.87;70.31
79006;BME280;69202;45.498;-73.582;2023-04-24T03:45:06;100715.88;;;8.76;69.94
79006;BME280;69202;45.498;-73.582;2023-04-24T03:47:32;100880.13;;;9.36;70.22
79006;BME280;69202;45.498;-73.582;2023-04-24T03:49:58;100891.22;;;9.77;70.30
79006;BME280;69202;45.498;-73.582;2023-04-24T03:52:24;100879.69;;;9.69;70.73
79006;BME280;69202;45.498;-73.582;2023-04-24T03:54:50;100819.66;;;9.31;69.82
79006;BME280;69202;45.498;-73.582;2023-04-24T03:57:16;100906.94;;;9.89;70.59
79006;BME280;69202;45.498;-73.582;2023-04-24T03:59:42;100964.72;;;10.09;70.52
79006;BME280;69202;45.498;-73.582;2023-04-24T04:02:08;100880.81;;;9.74;70.12
79006;BME280;69202;45.498;-73.582;2023-04-24T04:04:34;100952.56;;;10.20;70.59
79006;BME280;69202;45.498;-73.582;2023-04-24T04:07:00;100941.72;;;10.13;70.25
79006;BME280;69202;45.498;-73.582;2023-04-24T04:09:28;100856.63;;;9.66;70.77
79006;BME280;69202;45.498;-73.582;2023-04-24T04:11:54;100837.47;;;9.61;70.91
79006;BME280;69202;45.498;-73.582;2023-04-24T04:14:21;100891.75;;;9.88;69.87
79006;BME280;69202;45.498;-73.582;2023-04-24T04:16:47;100881.84;;;9.59;69.62
79006;BME280;69202;45.498;-73.582;2023-04-24T04:19:13;100858.41;;;9.59;70.63
79006;BME280;69202;45.498;-73.582;2023-04-24T04:21:39;100794.44;;;9.23;71.36
79006;BME280;69202;45.498;-73.582;2023-04-24T04:24:05;100870.00;;;9.74;69.92
79006;BME280;69202;45.498;-73.582;2023-04-24T04:26:32;100930.19;;;10.04;70.24
79006;BME280;69202;45.498;-73.582;2023-04-24T04:28:59;100842.81;;;9.40;71.09
79006;BME280;69202;45.498;-73.582;2023-04-24T04:31:29;100910.84;;;9.86;71.49
79006;BME280;69202;45.498;-73.582;2023-04-24T04:33:56;100897.53;;;9.84;70.54
79006;BME280;69202;45.498;-73.582;2023-04-24T04:36:22;100884.44;;;9.67;71.29
79006;BME280;69202;45.498;-73.582;2023-04-24T04:38:49;100790.84;;;9.02;71.20
79006;BME280;69202;45.498;-73.582;2023-04-24T04:41:15;100870.50;;;9.63;72.12
79006;BME280;69202;45.498;-73.582;2023-04-24T04:43:43;100930.63;;;10.08;71.21
79006;BME280;69202;45.498;-73.582;2023-04-24T04:46:09;100839.34;;;9.61;71.47
79006;BME280;69202;45.498;-73.582;2023-04-24T04:48:36;100919.47;;;10.11;71.60
79006;BME280;69202;45.498;-73.582;2023-04-24T04:51:02;100867.09;;;9.91;71.21
79006;BME280;69202;45.498;-73.582;2023-04-24T04:53:28;100837.22;;;9.77;70.96
79006;BME280;69202;45.498;-73.582;2023-04-24T04:55:56;100921.53;;;10.30;71.67
79006;BME280;69202;45.498;-73.582;2023-04-24T04:58:22;100842.38;;;9.72;71.44
79006;BME280;69202;45.498;-73.582;2023-04-24T05:00:48;100836.75;;;9.52;70.96
79006;BME280;69202;45.498;-73.582;2023-04-24T05:03:14;100911.38;;;9.96;70.98
79006;BME280;69202;45.498;-73.582;2023-04-24T05:05:41;100826.59;;;9.54;71.31
79006;BME280;69202;45.498;-73.582;2023-04-24T05:08:10;100917.66;;;10.18;71.36
79006;BME280;69202;45.498;-73.582;2023-04-24T05:10:36;100915.31;;;9.94;71.17
79006;BME280;69202;45.498;-73.582;2023-04-24T05:13:03;100474.72;;;7.26;71.90
79006;BME280;69202;45.498;-73.582;2023-04-24T05:15:30;100875.56;;;9.88;72.47
79006;BME280;69202;45.498;-73.582;2023-04-24T05:17:56;100819.84;;;9.65;71.77
79006;BME280;69202;45.498;-73.582;2023-04-24T05:20:22;100827.50;;;9.62;71.91
79006;BME280;69202;45.498;-73.582;2023-04-24T05:22:48;100907.78;;;10.25;71.86
79006;BME280;69202;45.498;-73.582;2023-04-24T05:25:14;100872.16;;;10.00;71.00
79006;BME280;69202;45.498;-73.582;2023-04-24T05:27:40;100874.28;;;10.05;71.20
79006;BME280;69202;45.498;-73.582;2023-04-24T05:30:07;100766.78;;;9.36;71.93
79006;BME280;69202;45.498;-73.582;2023-04-24T05:32:33;100880.97;;;10.09;71.46
79006;BME280;69202;45.498;-73.582;2023-04-24T05:34:59;100849.38;;;9.88;71.71
79006;BME280;69202;45.498;-73.582;2023-04-24T05:37:25;100787.56;;;9.57;72.12
79006;BME280;69202;45.498;-73.582;2023-04-24T05:39:51;100766.69;;;9.44;71.34
79006;BME280;69202;45.498;-73.582;2023-04-24T05:42:17;100901.88;;;10.36;71.46
79006;BME280;69202;45.498;-73.582;2023-04-24T05:44:43;100883.47;;;10.25;71.06
79006;BME280;69202;45.498;-73.582;2023-04-24T05:47:09;100789.25;;;9.79;71.50
79006;BME280;69202;45.498;-73.582;2023-04-24T05:49:35;100882.31;;;10.34;72.03
79006;BME280;69202;45.498;-73.582;2023-04-24T05:52:00;100868.19;;;10.39;71.06
79006;BME280;69202;45.498;-73.582;2023-04-24T05:54:26;100775.81;;;9.65;71.15
79006;BME280;69202;45.498;-73.582;2023-04-24T05:56:52;100687.44;;;9.09;70.89
79006;BME280;69202;45.498;-73.582;2023-04-24T05:59:20;100819.88;;;10.08;71.21
79006;BME280;69202;45.498;-73.582;2023-04-24T06:01:46;100795.44;;;9.95;71.11
79006;BME280;69202;45.498;-73.582;2023-04-24T06:04:12;100821.50;;;10.02;71.19
79006;BME280;69202;45.498;-73.582;2023-04-24T06:06:41;100811.63;;;10.16;71.27
79006;BME280;69202;45.498;-73.582;2023-04-24T06:09:07;100803.03;;;10.06;70.67
79006;BME280;69202;45.498;-73.582;2023-04-24T06:11:35;100820.47;;;10.03;70.98
79006;BME280;69202;45.498;-73.582;2023-04-24T06:14:01;100798.66;;;10.05;71.08
79006;BME280;69202;45.498;-73.582;2023-04-24T06:16:27;100882.09;;;10.57;71.21
79006;BME280;69202;45.498;-73.582;2023-04-24T06:18:53;100870.56;;;10.49;71.43
79006;BME280;69202;45.498;-73.582;2023-04-24T06:21:19;100780.06;;;9.95;71.47
79006;BME280;69202;45.498;-73.582;2023-04-24T06:23:45;100858.50;;;10.45;71.43
79006;BME280;69202;45.498;-73.582;2023-04-24T06:26:14;100837.00;;;10.36;71.53
79006;BME280;69202;45.498;-73.582;2023-04-24T06:28:40;100845.09;;;10.36;71.40
79006;BME280;69202;45.498;-73.582;2023-04-24T06:31:06;100745.69;;;9.61;71.68
79006;BME280;69202;45.498;-73.582;2023-04-24T06:33:32;100867.16;;;10.40;71.90
79006;BME280;69202;45.498;-73.582;2023-04-24T06:35:58;100835.66;;;10.26;71.53
79006;BME280;69202;45.498;-73.582;2023-04-24T06:38:24;100886.66;;;10.57;71.97
79006;BME280;69202;45.498;-73.582;2023-04-24T06:40:50;100703.34;;;9.40;72.13
79006;BME280;69202;45.498;-73.582;2023-04-24T06:43:16;100776.78;;;9.78;72.31
79006;BME280;69202;45.498;-73.582;2023-04-24T06:45:41;100829.41;;;10.04;72.19
79006;BME280;69202;45.498;-73.582;2023-04-24T06:48:09;100814.47;;;10.08;72.02
79006;BME280;69202;45.498;-73.582;2023-04-24T06:50:35;100839.41;;;10.25;71.47
79006;BME280;69202;45.498;-73.582;2023-04-24T06:53:01;100800.00;;;10.16;71.10
79006;BME280;69202;45.498;-73.582;2023-04-24T06:55:27;100808.88;;;10.31;70.25
79006;BME280;69202;45.498;-73.582;2023-04-24T06:57:53;100778.97;;;10.11;70.03
79006;BME280;69202;45.498;-73.582;2023-04-24T07:00:19;100872.09;;;10.58;70.40
79006;BME280;69202;45.498;-73.582;2023-04-24T07:02:45;100401.22;;;7.69;69.18
79006;BME280;69202;45.498;-73.582;2023-04-24T07:05:11;100638.09;;;9.15;69.08
79006;BME280;69202;45.498;-73.582;2023-04-24T07:07:38;100799.09;;;10.08;68.48
79006;BME280;69202;45.498;-73.582;2023-04-24T07:10:06;100861.13;;;10.38;68.12
79006;BME280;69202;45.498;-73.582;2023-04-24T07:12:32;100856.50;;;10.53;67.37
79006;BME280;69202;45.498;-73.582;2023-04-24T07:14:58;100843.94;;;10.46;66.48
79006;BME280;69202;45.498;-73.582;2023-04-24T07:17:24;100886.53;;;10.65;65.75
79006;BME280;69202;45.498;-73.582;2023-04-24T07:19:50;100780.31;;;10.00;66.74
79006;BME280;69202;45.498;-73.582;2023-04-24T07:22:17;100900.19;;;10.57;66.44
79006;BME280;69202;45.498;-73.582;2023-04-24T07:24:46;100931.69;;;10.71;66.19
79006;BME280;69202;45.498;-73.582;2023-04-24T07:27:12;100746.13;;;9.43;66.36
79006;BME280;69202;45.498;-73.582;2023-04-24T07:29:40;100928.34;;;10.69;66.42
79006;BME280;69202;45.498;-73.582;2023-04-24T07:32:07;100763.56;;;9.62;66.29
79006;BME280;69202;45.498;-73.582;2023-04-24T07:34:34;100926.38;;;10.56;65.49
79006;BME280;69202;45.498;-73.582;2023-04-24T07:37:00;100814.59;;;9.78;65.66
79006;BME280;69202;45.498;-73.582;2023-04-24T07:39:30;100860.63;;;10.28;65.78
79006;BME280;69202;45.498;-73.582;2023-04-24T07:41:56;100672.19;;;9.02;65.66
79006;BME280;69202;45.498;-73.582;2023-04-24T07:44:27;100932.16;;;10.75;65.01
79006;BME280;69202;45.498;-73.582;2023-04-24T07:46:53;100852.59;;;10.20;65.86
79006;BME280;69202;45.498;-73.582;2023-04-24T07:49:19;100931.84;;;10.63;65.86
79006;BME280;69202;45.498;-73.582;2023-04-24T07:51:45;100917.84;;;10.53;66.61
79006;BME280;69202;45.498;-73.582;2023-04-24T07:54:12;100877.03;;;10.26;66.68
79006;BME280;69202;45.498;-73.582;2023-04-24T07:56:37;100917.38;;;10.49;67.01
79006;BME280;69202;45.498;-73.582;2023-04-24T07:59:05;100847.72;;;10.08;67.29
79006;BME280;69202;45.498;-73.582;2023-04-24T08:01:31;100819.22;;;9.84;67.30
79006;BME280;69202;45.498;-73.582;2023-04-24T08:03:57;100925.94;;;10.53;67.14
79006;BME280;69202;45.498;-73.582;2023-04-24T08:06:23;100895.63;;;10.36;66.68
79006;BME280;69202;45.498;-73.582;2023-04-24T08:08:49;100820.78;;;9.94;66.02
79006;BME280;69202;45.498;-73.582;2023-04-24T08:11:17;100921.16;;;10.55;66.49
79006;BME280;69202;45.498;-73.582;2023-04-24T08:13:43;100843.75;;;10.04;65.50
79006;BME280;69202;45.498;-73.582;2023-04-24T08:16:08;100925.94;;;10.53;66.32
79006;BME280;69202;45.498;-73.582;2023-04-24T08:18:34;100778.81;;;9.70;66.26
79006;BME280;69202;45.498;-73.582;2023-04-24T08:21:01;100686.50;;;9.02;65.77
79006;BME280;69202;45.498;-73.582;2023-04-24T08:23:27;100886.16;;;10.25;66.33
79006;BME280;69202;45.498;-73.582;2023-04-24T08:25:55;100831.31;;;9.89;66.93
79006;BME280;69202;45.498;-73.582;2023-04-24T08:28:21;100788.03;;;9.61;66.73
79006;BME280;69202;45.498;-73.582;2023-04-24T08:30:47;100922.53;;;10.44;66.85
79006;BME280;69202;45.498;-73.582;2023-04-24T08:33:21;100886.56;;;10.22;66.68
79006;BME280;69202;45.498;-73.582;2023-04-24T08:35:47;100913.31;;;10.38;67.39
79006;BME280;69202;45.498;-73.582;2023-04-24T08:38:13;100918.59;;;10.47;66.27
79006;BME280;69202;45.498;-73.582;2023-04-24T08:40:39;100815.06;;;9.82;66.50
79006;BME280;69202;45.498;-73.582;2023-04-24T08:43:06;100912.56;;;10.45;66.86
79006;BME280;69202;45.498;-73.582;2023-04-24T08:45:32;100889.09;;;10.30;65.68
79006;BME280;69202;45.498;-73.582;2023-04-24T08:47:58;100920.53;;;10.53;65.40
79006;BME280;69202;45.498;-73.582;2023-04-24T08:50:27;100850.72;;;9.99;66.03
79006;BME280;69202;45.498;-73.582;2023-04-24T08:52:53;100918.19;;;10.50;66.27
79006;BME280;69202;45.498;-73.582;2023-04-24T08:55:20;100812.53;;;9.59;65.74
79006;BME280;69202;45.498;-73.582;2023-04-24T08:57:52;100885.03;;;10.20;65.78
79006;BME280;69202;45.498;-73.582;2023-04-24T09:00:22;100912.03;;;10.34;66.01
79006;BME280;69202;45.498;-73.582;2023-04-24T09:02:53;100929.84;;;10.50;65.26
79006;BME280;69202;45.498;-73.582;2023-04-24T09:05:23;100880.00;;;10.17;66.07
79006;BME280;69202;45.498;-73.582;2023-04-24T09:07:56;100896.59;;;10.28;66.30
79006;BME280;69202;45.498;-73.582;2023-04-24T09:10:24;100893.44;;;10.25;65.41
79006;BME280;69202;45.498;-73.582;2023-04-24T09:12:51;100933.16;;;10.46;65.37
79006;BME280;69202;45.498;-73.582;2023-04-24T09:15:19;100938.75;;;10.44;65.07
79006;BME280;69202;45.498;-73.582;2023-04-24T09:17:46;100944.50;;;10.41;65.81
79006;BME280;69202;45.498;-73.582;2023-04-24T09:20:12;100853.50;;;9.84;65.40
79006;BME280;69202;45.498;-73.582;2023-04-24T09:22:38;100926.31;;;10.28;65.85
79006;BME280;69202;45.498;-73.582;2023-04-24T09:25:08;100923.81;;;10.27;66.86
79006;BME280;69202;45.498;-73.582;2023-04-24T09:27:35;100936.81;;;10.38;66.00
79006;BME280;69202;45.498;-73.582;2023-04-24T09:30:03;100931.41;;;10.38;66.63
79006;BME280;69202;45.498;-73.582;2023-04-24T09:32:29;100852.28;;;9.87;66.53
79006;BME280;69202;45.498;-73.582;2023-04-24T09:35:07;100934.94;;;10.38;66.30
79006;BME280;69202;45.498;-73.582;2023-04-24T09:37:45;100929.41;;;10.25;65.72
79006;BME280;69202;45.498;-73.582;2023-04-24T09:40:22;100936.41;;;10.41;65.78
79006;BME280;69202;45.498;-73.582;2023-04-24T09:42:55;100896.03;;;10.18;65.30
79006;BME280;69202;45.498;-73.582;2023-04-24T09:45:44;100936.91;;;10.51;64.98
79006;BME280;69202;45.498;-73.582;2023-04-24T09:48:09;100942.66;;;10.41;64.71
79006;BME280;69202;45.498;-73.582;2023-04-24T09:50:35;100868.44;;;10.01;64.54
79006;BME280;69202;45.498;-73.582;2023-04-24T09:53:03;100946.66;;;10.46;64.82
79006;BME280;69202;45.498;-73.582;2023-04-24T09:55:30;100771.66;;;9.26;64.52
79006;BME280;69202;45.498;-73.582;2023-04-24T09:57:58;100940.22;;;10.47;64.34
79006;BME280;69202;45.498;-73.582;2023-04-24T10:00:29;100788.78;;;9.54;64.80
79006;BME280;69202;45.498;-73.582;2023-04-24T10:03:00;100847.47;;;9.82;63.94
79006;BME280;69202;45.498;-73.582;2023-04-24T10:05:37;100948.34;;;10.47;65.16
79006;BME280;69202;45.498;-73.582;2023-04-24T10:08:08;100901.19;;;10.13;64.76
79006;BME280;69202;45.498;-73.582;2023-04-24T10:10:38;100945.75;;;10.38;64.40
79006;BME280;69202;45.498;-73.582;2023-04-24T10:13:04;100851.56;;;9.78;64.91
79006;BME280;69202;45.498;-73.582;2023-04-24T10:15:30;100953.09;;;10.45;64.19
79006;BME280;69202;45.498;-73.582;2023-04-24T10:18:00;100943.88;;;10.39;63.67
79006;BME280;69202;45.498;-73.582;2023-04-24T10:20:29;100957.06;;;10.27;63.89
79006;BME280;69202;45.498;-73.582;2023-04-24T10:23:04;100954.31;;;10.06;64.94
79006;BME280;69202;45.498;-73.582;2023-04-24T10:25:32;100914.03;;;9.75;64.71
79006;BME280;69202;45.498;-73.582;2023-04-24T10:27:59;100956.22;;;10.27;64.82
79006;BME280;69202;45.498;-73.582;2023-04-24T10:30:28;100909.91;;;9.94;64.89
79006;BME280;69202;45.498;-73.582;2023-04-24T10:32:54;100890.50;;;9.69;64.55
79006;BME280;69202;45.498;-73.582;2023-04-24T10:35:22;100984.06;;;10.42;64.68
79006;BME280;69202;45.498;-73.582;2023-04-24T10:37:54;100990.31;;;10.43;64.85
79006;BME280;69202;45.498;-73.582;2023-04-24T10:40:35;100963.09;;;10.29;65.18
79006;BME280;69202;45.498;-73.582;2023-04-24T10:43:05;100959.56;;;10.29;64.84
79006;BME280;69202;45.498;-73.582;2023-04-24T10:45:33;100901.28;;;9.69;64.62
79006;BME280;69202;45.498;-73.582;2023-04-24T10:50:41;101002.59;;;10.45;64.39
79006;BME280;69202;45.498;-73.582;2023-04-24T10:53:22;100979.06;;;10.24;64.69
79006;BME280;69202;45.498;-73.582;2023-04-24T10:55:50;101015.50;;;10.28;64.24
79006;BME280;69202;45.498;-73.582;2023-04-24T10:58:21;100989.25;;;9.93;64.76
79006;BME280;69202;45.498;-73.582;2023-04-24T11:00:58;101033.78;;;10.11;64.66
79006;BME280;69202;45.498;-73.582;2023-04-24T11:03:29;101020.06;;;10.13;65.07
79006;BME280;69202;45.498;-73.582;2023-04-24T11:06:00;101014.41;;;10.23;64.49
79006;BME280;69202;45.498;-73.582;2023-04-24T11:11:09;101024.72;;;10.34;64.27
79006;BME280;69202;45.498;-73.582;2023-04-24T11:19:00;101035.03;;;10.45;64.23
79006;BME280;69202;45.498;-73.582;2023-04-24T11:21:31;100973.84;;;10.08;63.67
79006;BME280;69202;45.498;-73.582;2023-04-24T11:23:58;100997.22;;;10.16;64.51
79006;BME280;69202;45.498;-73.582;2023-04-24T11:26:24;101021.44;;;10.38;64.52
79006;BME280;69202;45.498;-73.582;2023-04-24T11:29:06;101012.97;;;10.27;63.60
79006;BME280;69202;45.498;-73.582;2023-04-24T11:31:37;101017.69;;;10.39;63.64
79006;BME280;69202;45.498;-73.582;2023-04-24T11:34:12;101011.84;;;10.36;63.73
79006;BME280;69202;45.498;-73.582;2023-04-24T11:36:40;101058.56;;;10.66;63.71
79006;BME280;69202;45.498;-73.582;2023-04-24T11:39:08;101025.59;;;10.56;62.76
79006;BME280;69202;45.498;-73.582;2023-04-24T11:41:34;101030.03;;;10.63;63.20
79006;BME280;69202;45.498;-73.582;2023-04-24T11:44:01;100991.81;;;10.30;62.37
79006;BME280;69202;45.498;-73.582;2023-04-24T11:46:29;101019.91;;;10.51;62.74
79006;BME280;69202;45.498;-73.582;2023-04-24T11:48:57;100897.31;;;9.65;62.34
79006;BME280;69202;45.498;-73.582;2023-04-24T11:51:24;101044.41;;;10.49;62.43
79006;BME280;69202;45.498;-73.582;2023-04-24T11:53:53;101065.88;;;10.72;63.00
79006;BME280;69202;45.498;-73.582;2023-04-24T11:56:21;101031.09;;;10.48;61.98
79006;BME280;69202;45.498;-73.582;2023-04-24T11:58:47;101070.22;;;10.66;63.00
79006;BME280;69202;45.498;-73.582;2023-04-24T12:01:13;101053.06;;;10.59;62.33
79006;BME280;69202;45.498;-73.582;2023-04-24T12:03:39;101051.66;;;10.63;62.02
79006;BME280;69202;45.498;-73.582;2023-04-24T12:06:11;101081.78;;;10.82;61.92
79006;BME280;69202;45.498;-73.582;2023-04-24T12:08:37;101043.38;;;10.50;61.66
79006;BME280;69202;45.498;-73.582;2023-04-24T12:11:05;101085.63;;;10.87;61.34
79006;BME280;69202;45.498;-73.582;2023-04-24T12:13:35;100947.63;;;10.02;62.02
79006;BME280;69202;45.498;-73.582;2023-04-24T12:16:04;101087.94;;;10.90;61.56
79006;BME280;69202;45.498;-73.582;2023-04-24T12:18:31;101092.06;;;10.86;62.03
79006;BME280;69202;45.498;-73.582;2023-04-24T12:21:15;101062.25;;;10.44;61.20
79006;BME280;69202;45.498;-73.582;2023-04-24T12:23:43;101093.66;;;10.45;62.10
79006;BME280;69202;45.498;-73.582;2023-04-24T12:26:10;100994.47;;;9.94;62.30
79006;BME280;69202;45.498;-73.582;2023-04-24T12:28:37;101013.63;;;10.14;62.13
79006;BME280;69202;45.498;-73.582;2023-04-24T12:31:04;101001.25;;;10.05;61.82
79006;BME280;69202;45.498;-73.582;2023-04-24T12:33:35;101041.41;;;10.08;61.83
79006;BME280;69202;45.498;-73.582;2023-04-24T12:36:01;101096.06;;;10.54;61.87
79006;BME280;69202;45.498;-73.582;2023-04-24T12:38:28;101115.72;;;10.63;61.29
79006;BME280;69202;45.498;-73.582;2023-04-24T12:41:09;101104.97;;;10.69;61.25
79006;BME280;69202;45.498;-73.582;2023-04-24T12:43:35;101110.56;;;10.68;61.71